Time,TemperatureF,DewpointF,PressureIn,WindDirection,WindDirectionDegrees,WindSpeedMPH,WindSpeedGustMPH,Humidity,HourlyPrecipIn,Conditions,Clouds,dailyrainin,SoftwareType,DateUTC
2013-01-19 00:07:00,69.9,59.0,30.16,NE,40,1.0,-999.0,68,-99.99,,,0.00,weatherlink.com 1.10,2013-01-19 05:07:00,
2013-01-19 00:22:00,69.9,60.0,30.16,East,89,1.0,-999.0,70,-99.99,,,0.00,weatherlink.com 1.10,2013-01-19 05:22:00,
2013-01-19 00:37:00,69.8,60.0,30.15,SE,130,1.0,-999.0,71,-99.99,,,0.00,weatherlink.com 1.10,2013-01-19 05:37:00,
2013-01-19 00:52:00,69.8,60.0,30.15,SSE,157,2.0,-999.0,71,-99.99,,,0.00,weatherlink.com 1.10,2013-01-19 05:52:00,
2013-01-19 01:07:00,69.7,60.0,30.15,ENE,69,2.0,-999.0,72,-99.99,,,0.00,weatherlink.com 1.10,2013-01-19 06:07:00,
2013-01-19 01:22:00,69.8,60.0,30.14,SE,127,1.0,-999.0,71,-99.99,,,0.00,weatherlink.com 1.10,2013-01-19 06:22:00,
2013-01-19 01:37:00,69.8,60.0,30.14,ESE,106,0.0,-999.0,72,-99.99,,,0.00,weatherlink.com 1.10,2013-01-19 06:37:00,
2013-01-19 01:52:00,69.9,61.0,30.13,SE,133,1.0,-999.0,73,-99.99,,,0.00,weatherlink.com 1.10,2013-01-19 06:52:00,
2013-01-19 02:07:00,69.7,61.0,30.13,SE,126,0.0,-999.0,73,-99.99,,,0.00,weatherlink.com 1.10,2013-01-19 07:07:00,
2013-01-19 02:22:00,69.7,61.0,30.13,SE,128,0.0,-999.0,74,-99.99,,,0.00,weatherlink.com 1.10,2013-01-19 07:22:00,
2013-01-19 02:37:00,69.8,61.0,30.12,SE,142,0.0,-999.0,74,-99.99,,,0.00,weatherlink.com 1.10,2013-01-19 07:37:00,
2013-01-19 02:52:00,69.6,61.0,30.12,NE,44,0.0,-999.0,75,-99.99,,,0.00,weatherlink.com 1.10,2013-01-19 07:52:00,
2013-01-19 03:07:00,69.4,62.0,30.12,ESE,115,0.0,-999.0,76,-99.99,,,0.00,weatherlink.com 1.10,2013-01-19 08:07:00,
2013-01-19 03:22:00,69.4,62.0,30.12,SE,130,0.0,-999.0,76,-99.99,,,0.00,weatherlink.com 1.10,2013-01-19 08:22:00,
2013-01-19 03:37:00,69.5,62.0,30.12,East,96,0.0,-999.0,76,-99.99,,,0.00,weatherlink.com 1.10,2013-01-19 08:37:00,
2013-01-19 03:52:00,69.6,62.0,30.12,ESE,112,0.0,-999.0,76,-99.99,,,0.00,weatherlink.com 1.10,2013-01-19 08:52:00,
2013-01-19 04:07:00,69.5,62.0,30.12,ESE,113,0.0,-999.0,76,-99.99,,,0.00,weatherlink.com 1.10,2013-01-19 09:07:00,
2013-01-19 04:22:00,69.5,62.0,30.12,ESE,113,0.0,-999.0,76,-99.99,,,0.00,weatherlink.com 1.10,2013-01-19 09:22:00,
2013-01-19 04:37:00,69.4,62.0,30.12,ESE,113,0.0,-999.0,76,-99.99,,,0.00,weatherlink.com 1.10,2013-01-19 09:37:00,
2013-01-19 04:52:00,69.3,62.0,30.12,ESE,113,0.0,-999.0,78,-99.99,,,0.00,weatherlink.com 1.10,2013-01-19 09:52:00,
2013-01-19 05:07:00,68.9,63.0,30.12,ESE,113,0.0,-999.0,80,-99.99,,,0.00,weatherlink.com 1.10,2013-01-19 10:07:00,
2013-01-19 05:22:00,68.2,63.0,30.12,ESE,113,0.0,-999.0,83,-99.99,,,0.00,weatherlink.com 1.10,2013-01-19 10:22:00,
2013-01-19 05:37:00,67.9,63.0,30.12,ESE,111,0.0,-999.0,84,-99.99,,,0.00,weatherlink.com 1.10,2013-01-19 10:37:00,
2013-01-19 05:52:00,67.7,63.0,30.12,ESE,113,0.0,-999.0,85,-99.99,,,0.00,weatherlink.com 1.10,2013-01-19 10:52:00,
2013-01-19 06:07:00,67.5,63.0,30.13,NNE,30,0.0,-999.0,85,-99.99,,,0.00,weatherlink.com 1.10,2013-01-19 11:07:00,
2013-01-19 07:52:00,66.5,63.0,30.15,WNW,302,0.0,-999.0,87,-99.99,,,0.00,weatherlink.com 1.10,2013-01-19 12:52:00,
2013-01-19 08:07:00,66.6,63.0,30.15,WNW,294,0.0,-999.0,87,-99.99,,,0.00,weatherlink.com 1.10,2013-01-19 13:07:00,
2013-01-19 08:23:00,66.7,63.0,30.16,WSW,241,0.0,-999.0,87,-99.99,,,0.00,weatherlink.com 1.10,2013-01-19 13:23:00,
2013-01-19 08:38:00,66.5,63.0,30.17,SW,219,0.0,-999.0,87,-99.99,,,0.00,weatherlink.com 1.10,2013-01-19 13:38:00,
2013-01-19 08:53:00,66.4,63.0,30.18,SSW,192,0.0,-999.0,88,-99.99,,,0.00,weatherlink.com 1.10,2013-01-19 13:53:00,
2013-01-19 09:08:00,65.6,62.0,30.19,WSW,252,0.0,-999.0,89,-99.99,,,0.00,weatherlink.com 1.10,2013-01-19 14:08:00,
2013-01-19 09:23:00,64.8,62.0,30.20,South,169,0.0,-999.0,91,-99.99,,,0.02,weatherlink.com 1.10,2013-01-19 14:23:00,
2013-01-19 09:38:00,64.5,62.0,30.20,SSW,196,0.0,-999.0,92,-99.99,,,0.08,weatherlink.com 1.10,2013-01-19 14:38:00,
2013-01-19 09:53:00,64.5,63.0,30.20,WSW,238,0.0,-999.0,93,-99.99,,,0.08,weatherlink.com 1.10,2013-01-19 14:53:00,
2013-01-19 10:08:00,64.4,63.0,30.20,West,275,0.0,-999.0,94,-99.99,,,0.09,weatherlink.com 1.10,2013-01-19 15:08:00,
2013-01-19 10:23:00,65.0,64.0,30.20,WSW,254,0.0,-999.0,95,-99.99,,,0.09,weatherlink.com 1.10,2013-01-19 15:23:00,
2013-01-19 10:38:00,65.3,64.0,30.20,SSW,203,0.0,-999.0,94,-99.99,,,0.10,weatherlink.com 1.10,2013-01-19 15:38:00,
2013-01-19 10:53:00,65.8,64.0,30.20,West,278,0.0,-999.0,94,-99.99,,,0.10,weatherlink.com 1.10,2013-01-19 15:53:00,
2013-01-19 11:08:00,65.9,65.0,30.20,West,268,1.0,-999.0,95,-99.99,,,0.10,weatherlink.com 1.10,2013-01-19 16:08:00,
2013-01-19 11:23:00,66.2,65.0,30.19,WNW,298,1.0,-999.0,94,-99.99,,,0.11,weatherlink.com 1.10,2013-01-19 16:23:00,
2013-01-19 11:38:00,66.5,65.0,30.18,WSW,246,0.0,-999.0,95,-99.99,,,0.11,weatherlink.com 1.10,2013-01-19 16:38:00,
2013-01-19 11:53:00,66.9,66.0,30.17,West,267,0.0,-999.0,95,-99.99,,,0.12,weatherlink.com 1.10,2013-01-19 16:53:00,
2013-01-19 12:08:00,67.4,66.0,30.17,NW,320,0.0,-999.0,95,-99.99,,,0.13,weatherlink.com 1.10,2013-01-19 17:08:00,
2013-01-19 12:23:00,67.9,67.0,30.16,WNW,289,1.0,-999.0,95,-99.99,,,0.13,weatherlink.com 1.10,2013-01-19 17:23:00,
2013-01-19 12:38:00,68.4,67.0,30.15,NW,311,1.0,-999.0,94,-99.99,,,0.13,weatherlink.com 1.10,2013-01-19 17:38:00,
2013-01-19 12:53:00,68.6,67.0,30.14,East,88,1.0,-999.0,94,-99.99,,,0.14,weatherlink.com 1.10,2013-01-19 17:53:00,
2013-01-19 13:23:00,69.1,67.0,30.12,ENE,75,0.0,-999.0,93,-99.99,,,0.15,weatherlink.com 1.10,2013-01-19 18:23:00,
2013-01-19 13:53:00,70.3,68.0,30.11,WNW,302,0.0,-999.0,91,-99.99,,,0.15,weatherlink.com 1.10,2013-01-19 18:53:00,
2013-01-19 14:08:00,70.4,68.0,30.11,WNW,287,0.0,-999.0,91,-99.99,,,0.15,weatherlink.com 1.10,2013-01-19 19:08:00,
2013-01-19 14:23:00,70.1,67.0,30.10,SE,137,1.0,-999.0,91,-99.99,,,0.17,weatherlink.com 1.10,2013-01-19 19:23:00,
2013-01-19 14:53:00,70.0,67.0,30.10,NNW,333,0.0,-999.0,91,-99.99,,,0.17,weatherlink.com 1.10,2013-01-19 19:53:00,
2013-01-19 15:08:00,69.9,68.0,30.10,NW,314,1.0,-999.0,92,-99.99,,,0.17,weatherlink.com 1.10,2013-01-19 20:08:00,
2013-01-19 15:23:00,69.4,67.0,30.10,East,88,1.0,-999.0,92,-99.99,,,0.18,weatherlink.com 1.10,2013-01-19 20:23:00,
2013-01-19 15:38:00,68.3,66.0,30.10,East,80,1.0,-999.0,92,-99.99,,,0.19,weatherlink.com 1.10,2013-01-19 20:38:00,
2013-01-19 15:53:00,68.2,67.0,30.10,ENE,63,1.0,-999.0,94,-99.99,,,0.20,weatherlink.com 1.10,2013-01-19 20:53:00,
2013-01-19 16:08:00,68.0,66.0,30.09,East,87,1.0,-999.0,93,-99.99,,,0.20,weatherlink.com 1.10,2013-01-19 21:08:00,
2013-01-19 16:23:00,68.1,66.0,30.09,NNE,20,0.0,-999.0,92,-99.99,,,0.20,weatherlink.com 1.10,2013-01-19 21:23:00,
2013-01-19 16:38:00,67.9,66.0,30.09,East,86,1.0,-999.0,92,-99.99,,,0.21,weatherlink.com 1.10,2013-01-19 21:38:00,
2013-01-19 16:53:00,68.2,66.0,30.09,East,82,3.0,-999.0,92,-99.99,,,0.21,weatherlink.com 1.10,2013-01-19 21:53:00,
2013-01-19 17:08:00,68.4,66.0,30.08,NE,49,0.0,-999.0,92,-99.99,,,0.21,weatherlink.com 1.10,2013-01-19 22:08:00,
2013-01-19 17:23:00,68.4,66.0,30.08,ENE,78,5.0,-999.0,92,-99.99,,,0.21,weatherlink.com 1.10,2013-01-19 22:23:00,
2013-01-19 17:38:00,68.4,66.0,30.08,NW,322,1.0,-999.0,92,-99.99,,,0.21,weatherlink.com 1.10,2013-01-19 22:38:00,
2013-01-19 17:53:00,68.4,66.0,30.09,NE,43,1.0,-999.0,91,-99.99,,,0.21,weatherlink.com 1.10,2013-01-19 22:53:00,
2013-01-19 18:08:00,68.4,66.0,30.10,North,350,0.0,-999.0,92,-99.99,,,0.21,weatherlink.com 1.10,2013-01-19 23:08:00,
2013-01-19 18:23:00,68.3,66.0,30.10,West,279,0.0,-999.0,93,-99.99,,,0.21,weatherlink.com 1.10,2013-01-19 23:23:00,
2013-01-19 18:38:00,68.2,66.0,30.11,NNW,347,0.0,-999.0,93,-99.99,,,0.21,weatherlink.com 1.10,2013-01-19 23:38:00,
2013-01-19 19:08:00,68.0,66.0,30.11,NW,314,0.0,-999.0,94,-99.99,,,0.21,weatherlink.com 1.10,2013-01-20 00:08:00,
2013-01-19 19:23:00,68.0,66.0,30.12,NW,325,0.0,-999.0,94,-99.99,,,0.21,weatherlink.com 1.10,2013-01-20 00:23:00,
2013-01-19 19:53:00,68.1,67.0,30.11,NNE,17,0.0,-999.0,95,-99.99,,,0.21,weatherlink.com 1.10,2013-01-20 00:53:00,
2013-01-19 20:08:00,67.9,67.0,30.12,NNW,338,0.0,-999.0,95,-99.99,,,0.21,weatherlink.com 1.10,2013-01-20 01:08:00,
2013-01-19 20:23:00,67.5,66.0,30.12,NNW,338,0.0,-999.0,95,-99.99,,,0.21,weatherlink.com 1.10,2013-01-20 01:23:00,
2013-01-19 20:38:00,67.3,66.0,30.12,NW,304,0.0,-999.0,95,-99.99,,,0.21,weatherlink.com 1.10,2013-01-20 01:38:00,
2013-01-19 20:53:00,67.3,66.0,30.12,West,281,0.0,-999.0,96,-99.99,,,0.21,weatherlink.com 1.10,2013-01-20 01:53:00,
2013-01-19 21:08:00,67.4,66.0,30.12,NW,317,0.0,-999.0,96,-99.99,,,0.21,weatherlink.com 1.10,2013-01-20 02:08:00,
2013-01-19 21:23:00,67.3,66.0,30.12,NW,317,0.0,-999.0,96,-99.99,,,0.21,weatherlink.com 1.10,2013-01-20 02:23:00,
2013-01-19 21:38:00,67.2,66.0,30.12,NW,313,0.0,-999.0,96,-99.99,,,0.21,weatherlink.com 1.10,2013-01-20 02:38:00,
2013-01-19 21:53:00,66.9,66.0,30.11,NNE,16,0.0,-999.0,96,-99.99,,,0.21,weatherlink.com 1.10,2013-01-20 02:53:00,
2013-01-19 22:08:00,66.6,66.0,30.11,NW,316,0.0,-999.0,96,-99.99,,,0.21,weatherlink.com 1.10,2013-01-20 03:08:00,
2013-01-19 22:23:00,66.3,65.0,30.11,NW,318,0.0,-999.0,96,-99.99,,,0.21,weatherlink.com 1.10,2013-01-20 03:23:00,
2013-01-19 22:38:00,66.1,65.0,30.10,NNW,329,1.0,-999.0,96,-99.99,,,0.21,weatherlink.com 1.10,2013-01-20 03:38:00,
2013-01-19 22:53:00,66.0,65.0,30.10,NW,321,0.0,-999.0,96,-99.99,,,0.21,weatherlink.com 1.10,2013-01-20 03:53:00,
2013-01-19 23:08:00,65.7,65.0,30.09,NW,320,0.0,-999.0,96,-99.99,,,0.21,weatherlink.com 1.10,2013-01-20 04:08:00,
2013-01-19 23:23:00,65.6,65.0,30.09,NNW,329,1.0,-999.0,96,-99.99,,,0.21,weatherlink.com 1.10,2013-01-20 04:23:00,
2013-01-19 23:38:00,65.4,65.0,30.09,NNW,328,0.0,-999.0,97,-99.99,,,0.21,weatherlink.com 1.10,2013-01-20 04:38:00,
2013-01-19 23:53:00,65.2,64.0,30.09,NW,311,0.0,-999.0,97,-99.99,,,0.21,weatherlink.com 1.10,2013-01-20 04:53:00,